sensor_id;sensor_type;location;lat;lon;timestamp;P1;durP1;ratioP1;P2;durP2;ratioP2
52456;SDS011;38369;52.840;7.082;2023-06-10T00:00:39;9.25;;;5.82;;
52456;SDS011;38369;52.840;7.082;2023-06-10T00:05:35;15.90;;;5.20;;
52456;SDS011;38369;52.840;7.082;2023-06-10T00:08:04;10.82;;;4.90;;
52456;SDS011;38369;52.840;7.082;2023-06-10T00:10:36;13.30;;;5.97;;
52456;SDS011;38369;52.840;7.082;2023-06-10T00:13:06;12.80;;;6.28;;
52456;SDS011;38369;52.840;7.082;2023-06-10T00:15:34;8.82;;;5.30;;
52456;SDS011;38369;52.840;7.082;2023-06-10T00:18:00;8.75;;;4.75;;
52456;SDS011;38369;52.840;7.082;2023-06-10T00:20:27;10.20;;;5.70;;
52456;SDS011;38369;52.840;7.082;2023-06-10T00:22:53;8.85;;;5.10;;
52456;SDS011;38369;52.840;7.082;2023-06-10T00:25:19;10.13;;;5.13;;
52456;SDS011;38369;52.840;7.082;2023-06-10T00:27:45;10.38;;;5.25;;
52456;SDS011;38369;52.840;7.082;2023-06-10T00:30:12;7.53;;;5.05;;
52456;SDS011;38369;52.840;7.082;2023-06-10T00:32:39;10.57;;;5.40;;
52456;SDS011;38369;52.840;7.082;2023-06-10T00:35:05;8.70;;;5.53;;
52456;SDS011;38369;52.840;7.082;2023-06-10T00:37:32;12.02;;;6.00;;
52456;SDS011;38369;52.840;7.082;2023-06-10T00:40:00;12.70;;;6.70;;
52456;SDS011;38369;52.840;7.082;2023-06-10T00:42:26;13.32;;;6.32;;
52456;SDS011;38369;52.840;7.082;2023-06-10T00:44:54;9.57;;;5.30;;
52456;SDS011;38369;52.840;7.082;2023-06-10T00:47:20;10.38;;;5.85;;
52456;SDS011;38369;52.840;7.082;2023-06-10T00:49:47;14.48;;;6.75;;
52456;SDS011;38369;52.840;7.082;2023-06-10T00:52:13;9.30;;;5.97;;
52456;SDS011;38369;52.840;7.082;2023-06-10T00:54:40;10.38;;;5.45;;
52456;SDS011;38369;52.840;7.082;2023-06-10T00:57:07;11.23;;;6.10;;
52456;SDS011;38369;52.840;7.082;2023-06-10T00:59:33;11.38;;;5.90;;
52456;SDS011;38369;52.840;7.082;2023-06-10T01:01:59;9.55;;;5.53;;
52456;SDS011;38369;52.840;7.082;2023-06-10T01:04:27;9.25;;;6.18;;
52456;SDS011;38369;52.840;7.082;2023-06-10T01:07:00;10.15;;;6.10;;
52456;SDS011;38369;52.840;7.082;2023-06-10T01:09:53;9.27;;;6.00;;
52456;SDS011;38369;52.840;7.082;2023-06-10T01:15:06;10.13;;;5.93;;
52456;SDS011;38369;52.840;7.082;2023-06-10T01:17:33;9.60;;;6.07;;
52456;SDS011;38369;52.840;7.082;2023-06-10T01:20:01;9.30;;;6.47;;
52456;SDS011;38369;52.840;7.082;2023-06-10T01:22:36;8.70;;;5.75;;
52456;SDS011;38369;52.840;7.082;2023-06-10T01:25:03;11.65;;;6.25;;
52456;SDS011;38369;52.840;7.082;2023-06-10T01:27:31;13.75;;;7.43;;
52456;SDS011;38369;52.840;7.082;2023-06-10T01:30:00;11.65;;;6.18;;
52456;SDS011;38369;52.840;7.082;2023-06-10T01:32:34;8.15;;;5.30;;
52456;SDS011;38369;52.840;7.082;2023-06-10T01:35:01;12.25;;;6.45;;
52456;SDS011;38369;52.840;7.082;2023-06-10T01:37:27;15.23;;;7.57;;
52456;SDS011;38369;52.840;7.082;2023-06-10T01:39:55;11.75;;;6.53;;
52456;SDS011;38369;52.840;7.082;2023-06-10T01:42:23;8.32;;;5.50;;
52456;SDS011;38369;52.840;7.082;2023-06-10T01:44:50;11.48;;;6.15;;
52456;SDS011;38369;52.840;7.082;2023-06-10T01:47:16;6.75;;;5.75;;
52456;SDS011;38369;52.840;7.082;2023-06-10T01:49:42;7.88;;;6.18;;
52456;SDS011;38369;52.840;7.082;2023-06-10T01:52:08;11.25;;;6.10;;
52456;SDS011;38369;52.840;7.082;2023-06-10T01:54:35;13.18;;;6.38;;
52456;SDS011;38369;52.840;7.082;2023-06-10T01:57:01;10.95;;;5.78;;
52456;SDS011;38369;52.840;7.082;2023-06-10T01:59:27;12.00;;;6.25;;
52456;SDS011;38369;52.840;7.082;2023-06-10T02:01:53;9.82;;;5.88;;
52456;SDS011;38369;52.840;7.082;2023-06-10T02:04:19;10.80;;;5.63;;
52456;SDS011;38369;52.840;7.082;2023-06-10T02:06:45;10.75;;;6.93;;
52456;SDS011;38369;52.840;7.082;2023-06-10T02:09:11;9.38;;;6.15;;
52456;SDS011;38369;52.840;7.082;2023-06-10T02:11:37;11.75;;;7.05;;
52456;SDS011;38369;52.840;7.082;2023-06-10T02:14:04;11.38;;;6.03;;
52456;SDS011;38369;52.840;7.082;2023-06-10T02:16:30;9.95;;;6.40;;
52456;SDS011;38369;52.840;7.082;2023-06-10T02:18:56;12.32;;;6.38;;
52456;SDS011;38369;52.840;7.082;2023-06-10T02:21:22;11.77;;;6.22;;
52456;SDS011;38369;52.840;7.082;2023-06-10T02:23:49;12.68;;;7.13;;
52456;SDS011;38369;52.840;7.082;2023-06-10T02:26:15;10.13;;;6.18;;
52456;SDS011;38369;52.840;7.082;2023-06-10T02:28:44;12.02;;;6.53;;
52456;SDS011;38369;52.840;7.082;2023-06-10T02:31:10;12.00;;;5.43;;
52456;SDS011;38369;52.840;7.082;2023-06-10T02:33:36;8.00;;;5.72;;
52456;SDS011;38369;52.840;7.082;2023-06-10T02:36:05;12.68;;;6.35;;
52456;SDS011;38369;52.840;7.082;2023-06-10T02:38:31;10.98;;;6.22;;
52456;SDS011;38369;52.840;7.082;2023-06-10T02:40:57;13.10;;;6.15;;
52456;SDS011;38369;52.840;7.082;2023-06-10T02:43:23;13.90;;;5.75;;
52456;SDS011;38369;52.840;7.082;2023-06-10T02:45:49;10.50;;;6.07;;
52456;SDS011;38369;52.840;7.082;2023-06-10T02:48:15;8.93;;;5.35;;
52456;SDS011;38369;52.840;7.082;2023-06-10T02:50:42;10.00;;;6.03;;
52456;SDS011;38369;52.840;7.082;2023-06-10T02:53:08;12.25;;;5.93;;
52456;SDS011;38369;52.840;7.082;2023-06-10T02:55:34;9.80;;;5.63;;
52456;SDS011;38369;52.840;7.082;2023-06-10T02:58:00;7.75;;;5.25;;
52456;SDS011;38369;52.840;7.082;2023-06-10T03:00:27;11.85;;;5.55;;
52456;SDS011;38369;52.840;7.082;2023-06-10T03:02:53;10.10;;;6.03;;
52456;SDS011;38369;52.840;7.082;2023-06-10T03:05:22;9.63;;;6.13;;
52456;SDS011;38369;52.840;7.082;2023-06-10T03:07:48;13.38;;;5.50;;
52456;SDS011;38369;52.840;7.082;2023-06-10T03:10:14;9.10;;;5.53;;
52456;SDS011;38369;52.840;7.082;2023-06-10T03:12:40;10.90;;;5.63;;
52456;SDS011;38369;52.840;7.082;2023-06-10T03:15:07;13.35;;;5.75;;
52456;SDS011;38369;52.840;7.082;2023-06-10T03:17:33;10.73;;;6.40;;
52456;SDS011;38369;52.840;7.082;2023-06-10T03:19:59;11.30;;;6.18;;
52456;SDS011;38369;52.840;7.082;2023-06-10T03:22:26;10.40;;;5.63;;
52456;SDS011;38369;52.840;7.082;2023-06-10T03:24:52;11.60;;;6.05;;
52456;SDS011;38369;52.840;7.082;2023-06-10T03:27:18;12.90;;;5.95;;
52456;SDS011;38369;52.840;7.082;2023-06-10T03:29:44;12.40;;;6.20;;
52456;SDS011;38369;52.840;7.082;2023-06-10T03:32:10;13.15;;;7.30;;
52456;SDS011;38369;52.840;7.082;2023-06-10T03:34:36;9.40;;;5.90;;
52456;SDS011;38369;52.840;7.082;2023-06-10T03:37:03;15.10;;;5.93;;
52456;SDS011;38369;52.840;7.082;2023-06-10T03:39:30;12.70;;;6.03;;
52456;SDS011;38369;52.840;7.082;2023-06-10T03:41:56;10.52;;;6.25;;
52456;SDS011;38369;52.840;7.082;2023-06-10T03:44:22;12.00;;;5.80;;
52456;SDS011;38369;52.840;7.082;2023-06-10T03:46:48;11.63;;;6.22;;
52456;SDS011;38369;52.840;7.082;2023-06-10T03:49:14;10.38;;;5.90;;
52456;SDS011;38369;52.840;7.082;2023-06-10T03:51:41;12.95;;;6.60;;
52456;SDS011;38369;52.840;7.082;2023-06-10T03:54:07;12.77;;;5.95;;
52456;SDS011;38369;52.840;7.082;2023-06-10T03:56:33;12.73;;;6.05;;
52456;SDS011;38369;52.840;7.082;2023-06-10T03:58:59;14.52;;;7.03;;
52456;SDS011;38369;52.840;7.082;2023-06-10T04:01:25;13.05;;;6.38;;
52456;SDS011;38369;52.840;7.082;2023-06-10T04:03:52;11.45;;;6.07;;
52456;SDS011;38369;52.840;7.082;2023-06-10T04:06:19;13.07;;;6.40;;
52456;SDS011;38369;52.840;7.082;2023-06-10T04:08:47;10.20;;;5.97;;
52456;SDS011;38369;52.840;7.082;2023-06-10T04:11:13;11.70;;;6.28;;
52456;SDS011;38369;52.840;7.082;2023-06-10T04:13:39;11.95;;;6.22;;
52456;SDS011;38369;52.840;7.082;2023-06-10T04:16:06;16.45;;;6.70;;
52456;SDS011;38369;52.840;7.082;2023-06-10T04:18:32;11.00;;;6.10;;
52456;SDS011;38369;52.840;7.082;2023-06-10T04:20:58;10.30;;;6.20;;
52456;SDS011;38369;52.840;7.082;2023-06-10T04:23:24;9.93;;;5.68;;
52456;SDS011;38369;52.840;7.082;2023-06-10T04:25:51;10.93;;;6.20;;
52456;SDS011;38369;52.840;7.082;2023-06-10T04:28:17;10.27;;;6.03;;
52456;SDS011;38369;52.840;7.082;2023-06-10T04:30:43;13.93;;;6.10;;
52456;SDS011;38369;52.840;7.082;2023-06-10T04:33:11;10.68;;;5.97;;
52456;SDS011;38369;52.840;7.082;2023-06-10T04:35:37;12.13;;;5.63;;
52456;SDS011;38369;52.840;7.082;2023-06-10T04:38:03;12.70;;;6.88;;
52456;SDS011;38369;52.840;7.082;2023-06-10T04:40:29;12.30;;;6.15;;
52456;SDS011;38369;52.840;7.082;2023-06-10T04:42:56;13.27;;;6.13;;
52456;SDS011;38369;52.840;7.082;2023-06-10T04:45:22;12.95;;;6.10;;
52456;SDS011;38369;52.840;7.082;2023-06-10T04:47:49;10.45;;;5.90;;
52456;SDS011;38369;52.840;7.082;2023-06-10T04:50:15;10.40;;;6.10;;
52456;SDS011;38369;52.840;7.082;2023-06-10T04:52:41;10.65;;;6.78;;
52456;SDS011;38369;52.840;7.082;2023-06-10T04:55:07;16.55;;;6.95;;
52456;SDS011;38369;52.840;7.082;2023-06-10T04:57:33;14.20;;;7.57;;
52456;SDS011;38369;52.840;7.082;2023-06-10T05:00:00;13.80;;;6.22;;
52456;SDS011;38369;52.840;7.082;2023-06-10T05:02:26;16.38;;;6.90;;
52456;SDS011;38369;52.840;7.082;2023-06-10T05:04:52;11.10;;;6.55;;
52456;SDS011;38369;52.840;7.082;2023-06-10T05:07:20;13.00;;;6.65;;
52456;SDS011;38369;52.840;7.082;2023-06-10T05:09:46;13.95;;;6.85;;
52456;SDS011;38369;52.840;7.082;2023-06-10T05:12:12;13.20;;;6.53;;
52456;SDS011;38369;52.840;7.082;2023-06-10T05:14:38;14.18;;;7.65;;
52456;SDS011;38369;52.840;7.082;2023-06-10T05:17:04;16.05;;;6.72;;
52456;SDS011;38369;52.840;7.082;2023-06-10T05:19:33;12.18;;;7.15;;
52456;SDS011;38369;52.840;7.082;2023-06-10T05:22:01;12.80;;;7.63;;
52456;SDS011;38369;52.840;7.082;2023-06-10T05:24:28;12.30;;;7.03;;
52456;SDS011;38369;52.840;7.082;2023-06-10T05:26:54;16.70;;;6.90;;
52456;SDS011;38369;52.840;7.082;2023-06-10T05:29:20;13.18;;;6.57;;
52456;SDS011;38369;52.840;7.082;2023-06-10T05:31:46;12.48;;;6.85;;
52456;SDS011;38369;52.840;7.082;2023-06-10T05:34:12;12.50;;;6.68;;
52456;SDS011;38369;52.840;7.082;2023-06-10T05:36:38;16.38;;;7.20;;
52456;SDS011;38369;52.840;7.082;2023-06-10T05:39:04;14.20;;;6.75;;
52456;SDS011;38369;52.840;7.082;2023-06-10T05:41:30;14.93;;;6.35;;
52456;SDS011;38369;52.840;7.082;2023-06-10T05:43:56;10.63;;;6.00;;
52456;SDS011;38369;52.840;7.082;2023-06-10T05:46:22;13.93;;;7.65;;
52456;SDS011;38369;52.840;7.082;2023-06-10T05:48:49;13.73;;;6.97;;
52456;SDS011;38369;52.840;7.082;2023-06-10T05:51:15;11.65;;;7.03;;
52456;SDS011;38369;52.840;7.082;2023-06-10T05:53:41;14.68;;;7.30;;
52456;SDS011;38369;52.840;7.082;2023-06-10T05:56:07;14.10;;;6.50;;
52456;SDS011;38369;52.840;7.082;2023-06-10T05:58:33;12.65;;;7.05;;
52456;SDS011;38369;52.840;7.082;2023-06-10T06:00:59;15.70;;;6.97;;
52456;SDS011;38369;52.840;7.082;2023-06-10T06:03:25;11.93;;;6.53;;
52456;SDS011;38369;52.840;7.082;2023-06-10T06:05:53;11.02;;;6.10;;
52456;SDS011;38369;52.840;7.082;2023-06-10T06:08:19;13.45;;;6.78;;
52456;SDS011;38369;52.840;7.082;2023-06-10T06:10:46;11.32;;;6.43;;
52456;SDS011;38369;52.840;7.082;2023-06-10T06:13:13;12.40;;;7.10;;
52456;SDS011;38369;52.840;7.082;2023-06-10T06:15:39;14.38;;;7.30;;
52456;SDS011;38369;52.840;7.082;2023-06-10T06:18:05;11.90;;;6.68;;
52456;SDS011;38369;52.840;7.082;2023-06-10T06:20:31;13.40;;;6.78;;
52456;SDS011;38369;52.840;7.082;2023-06-10T06:22:57;11.98;;;7.20;;
52456;SDS011;38369;52.840;7.082;2023-06-10T06:25:23;17.08;;;7.65;;
52456;SDS011;38369;52.840;7.082;2023-06-10T06:27:49;12.02;;;6.35;;
52456;SDS011;38369;52.840;7.082;2023-06-10T06:30:16;13.93;;;6.22;;
52456;SDS011;38369;52.840;7.082;2023-06-10T06:32:42;14.52;;;7.63;;
52456;SDS011;38369;52.840;7.082;2023-06-10T06:35:08;12.02;;;7.13;;
52456;SDS011;38369;52.840;7.082;2023-06-10T06:37:34;14.23;;;7.20;;
52456;SDS011;38369;52.840;7.082;2023-06-10T06:40:00;11.02;;;6.90;;
52456;SDS011;38369;52.840;7.082;2023-06-10T06:42:26;16.60;;;7.63;;
52456;SDS011;38369;52.840;7.082;2023-06-10T06:44:52;13.05;;;7.20;;
52456;SDS011;38369;52.840;7.082;2023-06-10T06:47:18;15.10;;;7.20;;
52456;SDS011;38369;52.840;7.082;2023-06-10T06:49:47;16.63;;;8.48;;
52456;SDS011;38369;52.840;7.082;2023-06-10T06:52:17;17.95;;;8.85;;
52456;SDS011;38369;52.840;7.082;2023-06-10T06:54:44;12.48;;;8.32;;
52456;SDS011;38369;52.840;7.082;2023-06-10T06:57:10;14.18;;;9.27;;
52456;SDS011;38369;52.840;7.082;2023-06-10T06:59:36;16.15;;;10.13;;
52456;SDS011;38369;52.840;7.082;2023-06-10T07:02:02;15.30;;;10.75;;
52456;SDS011;38369;52.840;7.082;2023-06-10T07:04:29;17.73;;;11.02;;
52456;SDS011;38369;52.840;7.082;2023-06-10T07:06:55;19.95;;;11.57;;
52456;SDS011;38369;52.840;7.082;2023-06-10T07:09:21;17.63;;;13.30;;
52456;SDS011;38369;52.840;7.082;2023-06-10T07:11:47;16.50;;;11.35;;
52456;SDS011;38369;52.840;7.082;2023-06-10T07:14:14;19.38;;;12.43;;
52456;SDS011;38369;52.840;7.082;2023-06-10T07:16:40;21.58;;;13.57;;
52456;SDS011;38369;52.840;7.082;2023-06-10T07:19:06;20.27;;;11.50;;
52456;SDS011;38369;52.840;7.082;2023-06-10T07:21:32;17.73;;;12.13;;
52456;SDS011;38369;52.840;7.082;2023-06-10T07:23:59;17.65;;;11.98;;
52456;SDS011;38369;52.840;7.082;2023-06-10T07:26:25;21.45;;;12.02;;
52456;SDS011;38369;52.840;7.082;2023-06-10T07:28:51;16.85;;;12.73;;
52456;SDS011;38369;52.840;7.082;2023-06-10T07:31:17;20.88;;;12.38;;
52456;SDS011;38369;52.840;7.082;2023-06-10T07:33:43;18.27;;;12.40;;
52456;SDS011;38369;52.840;7.082;2023-06-10T07:36:10;17.65;;;13.50;;
52456;SDS011;38369;52.840;7.082;2023-06-10T07:38:36;17.73;;;13.32;;
52456;SDS011;38369;52.840;7.082;2023-06-10T07:41:02;19.27;;;14.25;;
52456;SDS011;38369;52.840;7.082;2023-06-10T07:43:29;21.27;;;13.82;;
52456;SDS011;38369;52.840;7.082;2023-06-10T07:45:55;18.55;;;12.55;;
52456;SDS011;38369;52.840;7.082;2023-06-10T07:48:21;17.42;;;13.57;;
52456;SDS011;38369;52.840;7.082;2023-06-10T07:50:47;20.30;;;12.13;;
52456;SDS011;38369;52.840;7.082;2023-06-10T07:53:13;18.98;;;11.95;;
52456;SDS011;38369;52.840;7.082;2023-06-10T07:55:39;16.67;;;11.82;;
52456;SDS011;38369;52.840;7.082;2023-06-10T07:58:05;15.32;;;10.60;;
52456;SDS011;38369;52.840;7.082;2023-06-10T08:00:31;13.95;;;11.07;;
52456;SDS011;38369;52.840;7.082;2023-06-10T08:02:57;13.70;;;10.52;;
52456;SDS011;38369;52.840;7.082;2023-06-10T08:05:23;13.55;;;9.10;;
52456;SDS011;38369;52.840;7.082;2023-06-10T08:07:49;13.15;;;9.85;;
52456;SDS011;38369;52.840;7.082;2023-06-10T08:10:16;14.38;;;10.50;;
52456;SDS011;38369;52.840;7.082;2023-06-10T08:12:42;12.05;;;9.45;;
52456;SDS011;38369;52.840;7.082;2023-06-10T08:15:08;16.33;;;9.25;;
52456;SDS011;38369;52.840;7.082;2023-06-10T08:17:34;13.95;;;9.57;;
52456;SDS011;38369;52.840;7.082;2023-06-10T08:20:00;10.80;;;8.00;;
52456;SDS011;38369;52.840;7.082;2023-06-10T08:22:27;12.20;;;7.07;;
52456;SDS011;38369;52.840;7.082;2023-06-10T08:24:54;10.25;;;7.00;;
52456;SDS011;38369;52.840;7.082;2023-06-10T08:27:21;10.27;;;7.32;;
52456;SDS011;38369;52.840;7.082;2023-06-10T08:29:47;13.00;;;7.28;;
52456;SDS011;38369;52.840;7.082;2023-06-10T08:32:13;9.77;;;7.43;;
52456;SDS011;38369;52.840;7.082;2023-06-10T08:34:39;10.88;;;6.05;;
52456;SDS011;38369;52.840;7.082;2023-06-10T08:37:06;8.35;;;6.13;;
52456;SDS011;38369;52.840;7.082;2023-06-10T08:39:32;9.93;;;5.55;;
52456;SDS011;38369;52.840;7.082;2023-06-10T08:44:31;9.13;;;6.35;;
52456;SDS011;38369;52.840;7.082;2023-06-10T08:47:01;9.68;;;6.07;;
52456;SDS011;38369;52.840;7.082;2023-06-10T08:49:30;11.35;;;6.65;;
52456;SDS011;38369;52.840;7.082;2023-06-10T08:51:59;9.55;;;6.20;;
52456;SDS011;38369;52.840;7.082;2023-06-10T08:54:31;8.10;;;5.90;;
52456;SDS011;38369;52.840;7.082;2023-06-10T08:57:00;9.63;;;6.07;;
52456;SDS011;38369;52.840;7.082;2023-06-10T08:59:29;8.05;;;5.03;;
52456;SDS011;38369;52.840;7.082;2023-06-10T09:01:55;7.22;;;5.47;;
52456;SDS011;38369;52.840;7.082;2023-06-10T09:04:21;8.48;;;4.90;;
52456;SDS011;38369;52.840;7.082;2023-06-10T09:06:48;10.13;;;4.97;;
52456;SDS011;38369;52.840;7.082;2023-06-10T09:09:15;10.00;;;5.43;;
52456;SDS011;38369;52.840;7.082;2023-06-10T09:11:44;9.73;;;5.05;;
52456;SDS011;38369;52.840;7.082;2023-06-10T09:14:10;6.27;;;4.63;;
52456;SDS011;38369;52.840;7.082;2023-06-10T09:16:38;9.63;;;4.57;;
52456;SDS011;38369;52.840;7.082;2023-06-10T09:19:04;7.38;;;4.32;;
52456;SDS011;38369;52.840;7.082;2023-06-10T09:21:33;7.72;;;4.32;;
52456;SDS011;38369;52.840;7.082;2023-06-10T09:23:59;8.48;;;4.93;;
52456;SDS011;38369;52.840;7.082;2023-06-10T09:26:29;10.50;;;4.40;;
52456;SDS011;38369;52.840;7.082;2023-06-10T09:31:21;7.20;;;3.83;;
52456;SDS011;38369;52.840;7.082;2023-06-10T09:33:47;5.65;;;3.72;;
52456;SDS011;38369;52.840;7.082;2023-06-10T09:36:23;7.85;;;4.45;;
52456;SDS011;38369;52.840;7.082;2023-06-10T09:38:49;8.45;;;4.22;;
52456;SDS011;38369;52.840;7.082;2023-06-10T09:41:18;10.60;;;4.70;;
52456;SDS011;38369;52.840;7.082;2023-06-10T09:43:45;8.25;;;4.32;;
52456;SDS011;38369;52.840;7.082;2023-06-10T09:46:14;8.10;;;4.20;;
52456;SDS011;38369;52.840;7.082;2023-06-10T09:48:45;4.75;;;3.53;;
52456;SDS011;38369;52.840;7.082;2023-06-10T09:51:12;4.28;;;3.10;;
52456;SDS011;38369;52.840;7.082;2023-06-10T09:53:38;6.10;;;3.70;;
52456;SDS011;38369;52.840;7.082;2023-06-10T09:56:04;7.82;;;3.38;;
52456;SDS011;38369;52.840;7.082;2023-06-10T09:58:37;8.80;;;3.97;;
52456;SDS011;38369;52.840;7.082;2023-06-10T10:01:04;6.90;;;4.70;;
52456;SDS011;38369;52.840;7.082;2023-06-10T10:03:30;5.45;;;3.85;;
52456;SDS011;38369;52.840;7.082;2023-06-10T10:06:00;4.38;;;3.45;;
52456;SDS011;38369;52.840;7.082;2023-06-10T10:10:52;6.22;;;4.25;;
52456;SDS011;38369;52.840;7.082;2023-06-10T10:13:18;10.32;;;3.58;;
52456;SDS011;38369;52.840;7.082;2023-06-10T10:15:45;6.03;;;3.60;;
52456;SDS011;38369;52.840;7.082;2023-06-10T10:18:11;5.75;;;3.50;;
52456;SDS011;38369;52.840;7.082;2023-06-10T10:20:49;7.47;;;3.75;;
52456;SDS011;38369;52.840;7.082;2023-06-10T10:23:25;9.93;;;4.20;;
52456;SDS011;38369;52.840;7.082;2023-06-10T10:25:53;6.40;;;3.53;;
52456;SDS011;38369;52.840;7.082;2023-06-10T10:28:21;3.72;;;2.72;;
52456;SDS011;38369;52.840;7.082;2023-06-10T10:30:52;6.22;;;3.97;;
52456;SDS011;38369;52.840;7.082;2023-06-10T10:33:20;6.60;;;3.40;;
52456;SDS011;38369;52.840;7.082;2023-06-10T10:35:48;5.85;;;3.80;;
52456;SDS011;38369;52.840;7.082;2023-06-10T10:38:15;4.65;;;3.17;;
52456;SDS011;38369;52.840;7.082;2023-06-10T10:40:41;6.18;;;3.70;;
52456;SDS011;38369;52.840;7.082;2023-06-10T10:43:08;5.40;;;3.03;;
52456;SDS011;38369;52.840;7.082;2023-06-10T10:45:34;4.97;;;3.20;;
52456;SDS011;38369;52.840;7.082;2023-06-10T10:48:04;4.30;;;3.15;;
52456;SDS011;38369;52.840;7.082;2023-06-10T10:50:31;4.85;;;3.45;;
52456;SDS011;38369;52.840;7.082;2023-06-10T10:53:03;5.65;;;3.50;;
52456;SDS011;38369;52.840;7.082;2023-06-10T10:55:30;5.78;;;3.55;;
52456;SDS011;38369;52.840;7.082;2023-06-10T10:58:02;4.68;;;3.05;;
52456;SDS011;38369;52.840;7.082;2023-06-10T11:00:35;6.10;;;3.08;;
52456;SDS011;38369;52.840;7.082;2023-06-10T11:05:35;4.13;;;2.70;;
52456;SDS011;38369;52.840;7.082;2023-06-10T11:08:02;3.58;;;3.13;;
52456;SDS011;38369;52.840;7.082;2023-06-10T11:10:38;4.90;;;3.17;;
52456;SDS011;38369;52.840;7.082;2023-06-10T11:13:14;5.07;;;3.15;;
52456;SDS011;38369;52.840;7.082;2023-06-10T11:15:44;7.35;;;3.00;;
52456;SDS011;38369;52.840;7.082;2023-06-10T11:18:28;5.03;;;2.88;;
52456;SDS011;38369;52.840;7.082;2023-06-10T11:20:57;4.53;;;3.10;;
52456;SDS011;38369;52.840;7.082;2023-06-10T11:23:34;6.47;;;3.15;;
52456;SDS011;38369;52.840;7.082;2023-06-10T11:26:16;4.00;;;2.63;;
52456;SDS011;38369;52.840;7.082;2023-06-10T11:31:33;4.80;;;3.10;;
52456;SDS011;38369;52.840;7.082;2023-06-10T11:33:59;3.85;;;2.88;;
52456;SDS011;38369;52.840;7.082;2023-06-10T11:36:26;3.80;;;2.63;;
52456;SDS011;38369;52.840;7.082;2023-06-10T11:38:54;7.25;;;3.20;;
52456;SDS011;38369;52.840;7.082;2023-06-10T11:41:21;5.85;;;3.22;;
52456;SDS011;38369;52.840;7.082;2023-06-10T11:43:47;6.45;;;2.70;;
52456;SDS011;38369;52.840;7.082;2023-06-10T11:46:14;4.75;;;2.92;;
52456;SDS011;38369;52.840;7.082;2023-06-10T11:48:50;6.43;;;2.90;;
52456;SDS011;38369;52.840;7.082;2023-06-10T11:51:17;4.82;;;2.83;;
52456;SDS011;38369;52.840;7.082;2023-06-10T11:53:47;4.85;;;3.20;;
52456;SDS011;38369;52.840;7.082;2023-06-10T11:56:13;7.53;;;3.55;;
52456;SDS011;38369;52.840;7.082;2023-06-10T11:58:41;4.75;;;2.80;;
52456;SDS011;38369;52.840;7.082;2023-06-10T12:01:09;4.07;;;2.80;;
52456;SDS011;38369;52.840;7.082;2023-06-10T12:03:35;6.13;;;3.53;;
52456;SDS011;38369;52.840;7.082;2023-06-10T12:06:06;3.88;;;2.72;;
52456;SDS011;38369;52.840;7.082;2023-06-10T12:08:32;4.07;;;2.40;;
52456;SDS011;38369;52.840;7.082;2023-06-10T12:10:59;4.53;;;2.83;;
52456;SDS011;38369;52.840;7.082;2023-06-10T12:13:28;4.93;;;2.30;;
52456;SDS011;38369;52.840;7.082;2023-06-10T12:15:54;4.32;;;2.72;;
52456;SDS011;38369;52.840;7.082;2023-06-10T12:18:23;5.40;;;2.38;;
52456;SDS011;38369;52.840;7.082;2023-06-10T12:20:50;3.30;;;2.13;;
52456;SDS011;38369;52.840;7.082;2023-06-10T12:23:17;2.85;;;2.20;;
52456;SDS011;38369;52.840;7.082;2023-06-10T12:25:51;5.28;;;2.85;;
52456;SDS011;38369;52.840;7.082;2023-06-10T12:28:20;3.33;;;2.55;;
52456;SDS011;38369;52.840;7.082;2023-06-10T12:30:46;4.82;;;2.67;;
52456;SDS011;38369;52.840;7.082;2023-06-10T12:33:16;7.80;;;2.97;;
52456;SDS011;38369;52.840;7.082;2023-06-10T12:35:49;4.70;;;2.72;;
52456;SDS011;38369;52.840;7.082;2023-06-10T12:38:22;9.45;;;3.30;;
52456;SDS011;38369;52.840;7.082;2023-06-10T12:40:49;3.38;;;2.60;;
52456;SDS011;38369;52.840;7.082;2023-06-10T12:43:19;4.22;;;2.25;;
52456;SDS011;38369;52.840;7.082;2023-06-10T12:45:46;3.55;;;2.60;;
52456;SDS011;38369;52.840;7.082;2023-06-10T12:48:17;3.88;;;2.63;;
52456;SDS011;38369;52.840;7.082;2023-06-10T12:50:44;4.95;;;2.80;;
52456;SDS011;38369;52.840;7.082;2023-06-10T12:53:10;4.40;;;2.38;;
52456;SDS011;38369;52.840;7.082;2023-06-10T12:55:37;4.03;;;1.95;;
52456;SDS011;38369;52.840;7.082;2023-06-10T12:58:03;4.28;;;2.80;;
52456;SDS011;38369;52.840;7.082;2023-06-10T13:00:29;3.97;;;2.55;;
52456;SDS011;38369;52.840;7.082;2023-06-10T13:02:56;6.18;;;2.95;;
52456;SDS011;38369;52.840;7.082;2023-06-10T13:05:22;4.78;;;2.67;;
52456;SDS011;38369;52.840;7.082;2023-06-10T13:07:48;4.95;;;2.40;;
52456;SDS011;38369;52.840;7.082;2023-06-10T13:10:15;6.20;;;2.95;;
52456;SDS011;38369;52.840;7.082;2023-06-10T13:12:42;5.13;;;2.38;;
52456;SDS011;38369;52.840;7.082;2023-06-10T13:15:08;3.53;;;2.67;;
52456;SDS011;38369;52.840;7.082;2023-06-10T13:17:34;4.68;;;3.00;;
52456;SDS011;38369;52.840;7.082;2023-06-10T13:20:04;3.85;;;2.67;;
52456;SDS011;38369;52.840;7.082;2023-06-10T13:22:30;3.70;;;2.50;;
52456;SDS011;38369;52.840;7.082;2023-06-10T13:24:58;4.22;;;2.90;;
52456;SDS011;38369;52.840;7.082;2023-06-10T13:27:24;4.38;;;2.95;;
52456;SDS011;38369;52.840;7.082;2023-06-10T13:29:51;5.10;;;2.97;;
52456;SDS011;38369;52.840;7.082;2023-06-10T13:32:17;4.68;;;3.65;;
52456;SDS011;38369;52.840;7.082;2023-06-10T13:34:43;6.60;;;2.88;;
52456;SDS011;38369;52.840;7.082;2023-06-10T13:37:09;3.20;;;2.85;;
52456;SDS011;38369;52.840;7.082;2023-06-10T13:39:37;5.50;;;3.17;;
52456;SDS011;38369;52.840;7.082;2023-06-10T13:42:03;6.07;;;3.03;;
52456;SDS011;38369;52.840;7.082;2023-06-10T13:44:30;5.05;;;3.53;;
52456;SDS011;38369;52.840;7.082;2023-06-10T13:46:58;5.05;;;2.90;;
52456;SDS011;38369;52.840;7.082;2023-06-10T13:49:25;3.47;;;2.58;;
52456;SDS011;38369;52.840;7.082;2023-06-10T13:51:51;4.47;;;2.63;;
52456;SDS011;38369;52.840;7.082;2023-06-10T13:54:17;5.63;;;2.50;;
52456;SDS011;38369;52.840;7.082;2023-06-10T13:56:43;5.22;;;2.95;;
52456;SDS011;38369;52.840;7.082;2023-06-10T13:59:09;3.63;;;2.78;;
52456;SDS011;38369;52.840;7.082;2023-06-10T14:01:35;4.55;;;2.78;;
52456;SDS011;38369;52.840;7.082;2023-06-10T14:04:01;4.57;;;2.70;;
52456;SDS011;38369;52.840;7.082;2023-06-10T14:06:27;4.53;;;2.50;;
52456;SDS011;38369;52.840;7.082;2023-06-10T14:08:53;8.10;;;2.83;;
52456;SDS011;38369;52.840;7.082;2023-06-10T14:11:20;4.32;;;2.70;;
52456;SDS011;38369;52.840;7.082;2023-06-10T14:13:46;3.63;;;2.88;;
52456;SDS011;38369;52.840;7.082;2023-06-10T14:16:12;5.97;;;2.58;;
52456;SDS011;38369;52.840;7.082;2023-06-10T14:18:38;4.72;;;3.15;;
52456;SDS011;38369;52.840;7.082;2023-06-10T14:21:04;6.60;;;3.45;;
52456;SDS011;38369;52.840;7.082;2023-06-10T14:23:30;11.02;;;3.03;;
52456;SDS011;38369;52.840;7.082;2023-06-10T14:25:57;5.13;;;2.80;;
52456;SDS011;38369;52.840;7.082;2023-06-10T14:28:24;7.72;;;2.90;;
52456;SDS011;38369;52.840;7.082;2023-06-10T14:30:51;6.07;;;2.55;;
52456;SDS011;38369;52.840;7.082;2023-06-10T14:33:17;5.55;;;2.85;;
52456;SDS011;38369;52.840;7.082;2023-06-10T14:35:43;4.88;;;2.88;;
52456;SDS011;38369;52.840;7.082;2023-06-10T14:38:10;4.60;;;2.75;;
52456;SDS011;38369;52.840;7.082;2023-06-10T14:40:36;4.68;;;2.83;;
52456;SDS011;38369;52.840;7.082;2023-06-10T14:43:02;5.07;;;2.65;;
52456;SDS011;38369;52.840;7.082;2023-06-10T14:45:34;3.22;;;2.67;;
52456;SDS011;38369;52.840;7.082;2023-06-10T14:48:00;6.18;;;3.47;;
52456;SDS011;38369;52.840;7.082;2023-06-10T14:50:26;5.60;;;3.25;;
52456;SDS011;38369;52.840;7.082;2023-06-10T14:52:52;3.42;;;2.65;;
52456;SDS011;38369;52.840;7.082;2023-06-10T14:55:19;3.97;;;2.75;;
52456;SDS011;38369;52.840;7.082;2023-06-10T14:57:45;3.55;;;2.25;;